createdAt,value
2017-10-29T00:00:42.163Z,998.92
2017-10-29T00:02:35.158Z,998.83
2017-10-29T00:03:35.213Z,998.90
2017-10-29T00:05:28.223Z,998.81
2017-10-29T00:06:28.263Z,998.82
2017-10-29T00:08:21.267Z,998.91
2017-10-29T00:09:21.310Z,998.84
2017-10-29T00:11:14.297Z,998.79
2017-10-29T00:12:14.355Z,998.72
2017-10-29T00:14:07.364Z,998.65
2017-10-29T00:15:07.402Z,998.58
2017-10-29T00:17:00.385Z,998.54
2017-10-29T00:18:00.445Z,998.58
2017-10-29T00:19:53.453Z,998.47
2017-10-29T00:20:53.490Z,998.78
2017-10-29T00:22:46.474Z,998.35
2017-10-29T00:23:46.535Z,998.33
2017-10-29T00:25:40.048Z,998.35
2017-10-29T00:26:40.090Z,998.37
2017-10-29T00:28:33.080Z,998.26
2017-10-29T00:29:33.148Z,998.47
2017-10-29T00:31:26.149Z,998.33
2017-10-29T00:32:26.191Z,998.26
2017-10-29T00:34:19.195Z,998.26
2017-10-29T00:35:19.235Z,998.25
2017-10-29T00:37:12.218Z,998.19
2017-10-29T00:38:12.281Z,998.13
2017-10-29T00:40:05.288Z,998.23
2017-10-29T00:41:05.324Z,998.27
2017-10-29T00:42:58.314Z,998.20
2017-10-29T00:43:58.371Z,998.11
2017-10-29T00:45:51.375Z,997.99
2017-10-29T00:46:51.412Z,998.05
2017-10-29T00:48:44.404Z,997.96
2017-10-29T00:49:44.458Z,997.97
2017-10-29T00:51:37.462Z,997.92
2017-10-29T00:52:37.503Z,997.85
2017-10-29T00:54:30.490Z,997.88
2017-10-29T00:55:30.548Z,997.90
2017-10-29T00:57:23.553Z,997.77
2017-10-29T00:58:23.597Z,997.66
2017-10-29T01:00:16.582Z,997.68
2017-10-29T01:01:16.638Z,997.59
2017-10-29T01:03:09.645Z,997.71
2017-10-29T01:04:09.683Z,997.67
2017-10-29T01:06:02.682Z,997.67
2017-10-29T01:07:02.731Z,997.67
2017-10-29T01:08:55.733Z,997.73
2017-10-29T01:09:55.774Z,997.73
2017-10-29T01:11:48.779Z,997.75
2017-10-29T01:12:48.820Z,997.79
2017-10-29T01:14:41.819Z,997.66
2017-10-29T01:15:41.867Z,997.66
2017-10-29T01:17:34.875Z,997.62
2017-10-29T01:18:34.915Z,997.64
2017-10-29T01:20:27.905Z,997.72
2017-10-29T01:21:27.963Z,997.61
2017-10-29T01:23:20.969Z,997.59
2017-10-29T01:24:21.007Z,997.51
2017-10-29T01:26:13.997Z,997.51
2017-10-29T01:27:14.062Z,997.46
2017-10-29T01:29:07.065Z,997.51
2017-10-29T01:30:07.100Z,997.44
2017-10-29T01:32:00.090Z,997.53
2017-10-29T01:33:00.148Z,997.49
2017-10-29T01:34:53.151Z,997.46
2017-10-29T01:35:53.193Z,997.40
2017-10-29T01:37:46.181Z,997.39
2017-10-29T01:38:46.242Z,997.37
2017-10-29T01:40:39.243Z,997.20
2017-10-29T01:41:39.286Z,997.28
2017-10-29T01:43:32.287Z,997.33
2017-10-29T01:44:32.332Z,997.17
2017-10-29T01:46:25.317Z,997.18
2017-10-29T01:47:25.373Z,997.18
2017-10-29T01:49:18.380Z,997.12
2017-10-29T01:50:18.420Z,997.28
2017-10-29T01:52:11.406Z,997.13
2017-10-29T01:53:11.465Z,997.20
2017-10-29T01:55:04.472Z,997.10
2017-10-29T01:56:04.511Z,997.20
2017-10-29T01:57:57.502Z,997.06
2017-10-29T01:58:57.557Z,997.09
2017-10-29T02:00:50.561Z,996.97
2017-10-29T02:01:50.602Z,997.02
2017-10-29T02:03:43.620Z,996.93
2017-10-29T02:04:43.647Z,996.91
2017-10-29T02:06:36.634Z,996.85
2017-10-29T02:07:36.691Z,996.87
2017-10-29T02:09:29.697Z,996.90
2017-10-29T02:10:29.738Z,996.84
2017-10-29T02:12:22.728Z,996.68
2017-10-29T02:13:22.788Z,996.74
2017-10-29T02:15:15.795Z,996.68
2017-10-29T02:16:15.833Z,996.59
2017-10-29T02:18:08.825Z,996.53
2017-10-29T02:19:08.881Z,996.40
2017-10-29T02:21:01.885Z,996.35
2017-10-29T02:22:01.926Z,996.40
2017-10-29T02:23:54.915Z,996.41
2017-10-29T02:24:54.971Z,996.33
2017-10-29T02:26:47.978Z,996.34
2017-10-29T02:27:48.018Z,996.46
2017-10-29T02:29:41.023Z,996.57
2017-10-29T02:30:41.063Z,996.65
2017-10-29T02:32:34.060Z,996.69
2017-10-29T02:33:34.109Z,996.76
2017-10-29T02:35:27.118Z,996.87
2017-10-29T02:36:27.159Z,996.78
2017-10-29T02:38:20.147Z,996.86
2017-10-29T02:39:20.211Z,996.89
2017-10-29T02:41:13.222Z,996.97
2017-10-29T02:42:13.268Z,997.00
2017-10-29T02:44:06.249Z,996.97
2017-10-29T02:45:06.314Z,996.96
2017-10-29T02:46:59.319Z,997.04
2017-10-29T02:47:59.359Z,996.99
2017-10-29T02:49:52.341Z,996.77
2017-10-29T02:50:52.400Z,996.78
2017-10-29T02:52:45.407Z,996.86
2017-10-29T02:53:45.449Z,996.87
2017-10-29T02:55:38.431Z,996.82
2017-10-29T02:56:38.493Z,996.91
2017-10-29T02:58:31.501Z,996.85
2017-10-29T02:59:31.537Z,996.78
2017-10-29T03:01:24.520Z,996.89
2017-10-29T03:02:24.581Z,996.84
2017-10-29T03:04:17.589Z,997.00
2017-10-29T03:05:17.630Z,997.01
2017-10-29T03:07:10.637Z,997.02
2017-10-29T03:08:10.679Z,996.96
2017-10-29T03:10:03.671Z,996.94
2017-10-29T03:11:03.729Z,996.93
2017-10-29T03:12:56.749Z,997.10
2017-10-29T03:13:56.776Z,997.12
2017-10-29T03:15:49.764Z,997.22
2017-10-29T03:16:49.828Z,997.27
2017-10-29T03:18:42.832Z,997.34
2017-10-29T03:19:42.870Z,997.45
2017-10-29T03:21:35.860Z,997.60
2017-10-29T03:22:35.921Z,997.86
2017-10-29T03:24:28.938Z,997.86
2017-10-29T03:25:28.975Z,998.03
2017-10-29T03:27:21.967Z,997.80
2017-10-29T03:28:22.022Z,997.93
2017-10-29T03:30:15.030Z,998.16
2017-10-29T03:31:15.078Z,997.98
2017-10-29T03:33:08.058Z,997.84
2017-10-29T03:34:08.115Z,997.74
2017-10-29T03:36:01.120Z,997.71
2017-10-29T03:37:01.159Z,997.90
2017-10-29T03:38:55.163Z,997.93
2017-10-29T03:39:55.204Z,997.88
2017-10-29T03:41:48.190Z,998.02
2017-10-29T03:42:48.248Z,997.99
2017-10-29T03:44:41.254Z,998.12
2017-10-29T03:45:41.304Z,998.16
2017-10-29T03:47:34.276Z,998.01
2017-10-29T03:48:34.344Z,998.18
2017-10-29T03:50:27.341Z,998.07
2017-10-29T03:51:27.381Z,998.13
2017-10-29T03:53:20.370Z,998.17
2017-10-29T03:54:20.428Z,998.14
2017-10-29T03:56:13.430Z,998.18
2017-10-29T03:57:13.468Z,998.21
2017-10-29T03:59:06.457Z,998.15
2017-10-29T04:00:06.513Z,998.15
2017-10-29T04:01:59.521Z,998.16
2017-10-29T04:02:59.558Z,998.27
2017-10-29T04:04:52.545Z,998.20
2017-10-29T04:05:52.601Z,998.18
2017-10-29T04:07:45.607Z,998.22
2017-10-29T04:08:45.645Z,998.28
2017-10-29T04:10:38.651Z,998.23
2017-10-29T04:11:38.690Z,998.22
2017-10-29T04:13:31.680Z,998.28
2017-10-29T04:14:31.734Z,998.27
2017-10-29T04:16:24.738Z,998.29
2017-10-29T04:17:24.776Z,998.30
2017-10-29T04:19:17.768Z,998.24
2017-10-29T04:20:17.823Z,998.26
2017-10-29T04:22:10.828Z,998.31
2017-10-29T04:23:10.869Z,998.30
2017-10-29T04:25:04.369Z,998.21
2017-10-29T04:26:04.418Z,998.26
2017-10-29T04:27:57.423Z,998.35
2017-10-29T04:28:57.470Z,998.30
2017-10-29T04:30:50.443Z,998.38
2017-10-29T04:31:50.506Z,998.48
2017-10-29T04:33:43.509Z,998.41
2017-10-29T04:34:43.549Z,998.55
2017-10-29T04:36:36.576Z,998.53
2017-10-29T04:37:36.593Z,998.47
2017-10-29T04:39:29.579Z,998.59
2017-10-29T04:40:29.638Z,998.51
2017-10-29T04:42:22.650Z,998.53
2017-10-29T04:43:22.689Z,998.57
2017-10-29T04:45:15.678Z,998.61
2017-10-29T04:46:15.737Z,998.65
2017-10-29T04:48:08.748Z,998.62
2017-10-29T04:49:08.785Z,998.73
2017-10-29T04:51:01.767Z,998.87
2017-10-29T04:52:01.828Z,998.85
2017-10-29T04:53:54.845Z,999.15
2017-10-29T04:54:54.874Z,999.09
2017-10-29T04:56:47.860Z,999.17
2017-10-29T04:57:47.918Z,999.23
2017-10-29T04:59:40.926Z,999.36
2017-10-29T05:00:40.960Z,999.22
2017-10-29T05:02:33.943Z,999.38
2017-10-29T05:03:34.005Z,999.28
2017-10-29T05:05:27.009Z,999.25
2017-10-29T05:06:27.047Z,999.27
2017-10-29T05:08:20.034Z,999.28
2017-10-29T05:09:20.091Z,999.25
2017-10-29T05:11:13.098Z,999.32
2017-10-29T05:12:13.137Z,999.33
2017-10-29T05:14:06.144Z,999.41
2017-10-29T05:15:06.181Z,999.40
2017-10-29T05:16:59.270Z,999.41
2017-10-29T05:17:59.227Z,999.43
2017-10-29T05:19:52.236Z,999.38
2017-10-29T05:20:52.276Z,999.42
2017-10-29T05:22:45.259Z,999.43
2017-10-29T05:23:45.315Z,999.49
2017-10-29T05:25:38.831Z,999.64
2017-10-29T05:26:38.866Z,999.66
2017-10-29T05:28:31.855Z,999.59
2017-10-29T05:29:31.913Z,999.66
2017-10-29T05:31:24.922Z,999.78
2017-10-29T05:32:24.959Z,999.90
2017-10-29T05:34:17.942Z,999.85
2017-10-29T05:35:18.004Z,999.82
2017-10-29T05:37:11.012Z,1000.04
2017-10-29T05:38:11.048Z,1000.00
2017-10-29T05:40:04.072Z,999.89
2017-10-29T05:41:04.094Z,1000.18
2017-10-29T05:42:57.081Z,999.84
2017-10-29T05:43:57.138Z,1000.18
2017-10-29T05:45:50.196Z,1000.29
2017-10-29T05:46:50.180Z,1000.15
2017-10-29T05:48:43.175Z,1000.18
2017-10-29T05:49:43.223Z,1000.25
2017-10-29T05:51:36.229Z,1000.28
2017-10-29T05:52:36.267Z,1000.32
2017-10-29T05:54:29.254Z,1000.37
2017-10-29T05:55:29.311Z,1000.48
2017-10-29T05:57:22.319Z,1000.47
2017-10-29T05:58:22.355Z,1000.50
2017-10-29T06:00:15.343Z,1000.50
2017-10-29T06:01:15.402Z,1000.47
2017-10-29T06:03:08.404Z,1000.57
2017-10-29T06:04:08.443Z,1000.75
2017-10-29T06:06:01.430Z,1000.73
2017-10-29T06:07:01.487Z,1000.67
2017-10-29T06:08:54.492Z,1000.73
2017-10-29T06:09:54.529Z,1000.77
2017-10-29T06:11:47.533Z,1000.77
2017-10-29T06:12:47.572Z,1000.71
2017-10-29T06:14:40.559Z,1000.81
2017-10-29T06:15:40.616Z,1000.79
2017-10-29T06:17:33.620Z,1000.86
2017-10-29T06:18:33.706Z,1000.86
2017-10-29T06:20:26.646Z,1000.95
2017-10-29T06:21:26.703Z,1000.97
2017-10-29T06:23:19.731Z,1001.06
2017-10-29T06:24:19.746Z,1001.08
2017-10-29T06:26:12.735Z,1001.14
2017-10-29T06:27:12.789Z,1001.20
2017-10-29T06:29:05.800Z,1001.25
2017-10-29T06:30:05.840Z,1001.25
2017-10-29T06:31:58.819Z,1001.40
2017-10-29T06:32:58.885Z,1001.46
2017-10-29T06:34:51.885Z,1001.46
2017-10-29T06:35:51.945Z,1001.53
2017-10-29T06:37:44.909Z,1001.53
2017-10-29T06:38:44.965Z,1001.57
2017-10-29T06:40:37.974Z,1001.56
2017-10-29T06:41:38.010Z,1001.67
2017-10-29T06:43:31.049Z,1001.70
2017-10-29T06:44:31.073Z,1001.78
2017-10-29T06:46:24.057Z,1001.79
2017-10-29T06:47:24.114Z,1001.83
2017-10-29T06:49:17.121Z,1001.90
2017-10-29T06:50:17.161Z,1001.75
2017-10-29T06:52:10.141Z,1001.81
2017-10-29T06:53:10.201Z,1001.94
2017-10-29T06:55:03.216Z,1001.95
2017-10-29T06:56:03.242Z,1001.92
2017-10-29T06:57:56.256Z,1001.96
2017-10-29T06:58:56.392Z,1001.92
2017-10-29T07:00:49.339Z,1001.90
2017-10-29T07:01:49.360Z,1001.95
2017-10-29T07:03:42.344Z,1002.09
2017-10-29T07:04:42.400Z,1002.15
2017-10-29T07:06:35.430Z,1002.17
2017-10-29T07:07:35.460Z,1002.23
2017-10-29T07:09:28.430Z,1002.30
2017-10-29T07:10:28.490Z,1002.33
2017-10-29T07:12:21.499Z,1002.50
2017-10-29T07:13:21.536Z,1002.40
2017-10-29T07:15:14.565Z,1002.53
2017-10-29T07:16:14.591Z,1002.57
2017-10-29T07:18:07.573Z,1002.51
2017-10-29T07:19:07.630Z,1002.50
2017-10-29T07:21:00.703Z,1002.73
2017-10-29T07:22:00.672Z,1002.75
2017-10-29T07:23:53.653Z,1002.82
2017-10-29T07:24:53.713Z,1002.88
2017-10-29T07:26:46.717Z,1002.93
2017-10-29T07:27:46.755Z,1003.00
2017-10-29T07:29:39.743Z,1003.05
2017-10-29T07:30:39.802Z,1002.98
2017-10-29T07:32:32.806Z,1003.03
2017-10-29T07:33:32.846Z,1002.99
2017-10-29T07:35:25.834Z,1003.12
2017-10-29T07:36:25.891Z,1003.10
2017-10-29T07:38:18.901Z,1003.14
2017-10-29T07:39:18.939Z,1003.24
2017-10-29T07:41:11.958Z,1003.22
2017-10-29T07:42:11.988Z,1003.23
2017-10-29T07:44:04.973Z,1003.35
2017-10-29T07:45:05.030Z,1003.40
2017-10-29T07:46:58.033Z,1003.35
2017-10-29T07:47:58.072Z,1003.27
2017-10-29T07:49:51.055Z,1003.34
2017-10-29T07:50:51.116Z,1003.49
2017-10-29T07:52:44.125Z,1003.49
2017-10-29T07:53:44.163Z,1003.55
2017-10-29T07:55:37.154Z,1003.68
2017-10-29T07:56:37.237Z,1003.72
2017-10-29T07:58:30.257Z,1003.76
2017-10-29T07:59:30.255Z,1003.75
2017-10-29T08:01:23.246Z,1003.85
2017-10-29T08:02:23.299Z,1003.86
2017-10-29T08:04:16.305Z,1003.89
2017-10-29T08:05:16.365Z,1003.93
2017-10-29T08:07:09.351Z,1003.96
2017-10-29T08:08:09.391Z,1003.96
2017-10-29T08:10:02.379Z,1004.01
2017-10-29T08:11:02.458Z,1004.01
2017-10-29T08:12:55.484Z,1004.16
2017-10-29T08:13:55.487Z,1004.16
2017-10-29T08:15:48.473Z,1004.13
2017-10-29T08:16:48.534Z,1004.20
2017-10-29T08:18:41.545Z,1004.24
2017-10-29T08:19:41.580Z,1004.21
2017-10-29T08:21:34.570Z,1004.29
2017-10-29T08:22:34.629Z,1004.16
2017-10-29T08:24:27.642Z,1004.31
2017-10-29T08:25:27.679Z,1004.32
2017-10-29T08:27:20.672Z,1004.39
2017-10-29T08:28:20.734Z,1004.38
2017-10-29T08:30:13.751Z,1004.47
2017-10-29T08:31:13.783Z,1004.46
2017-10-29T08:33:06.771Z,1004.41
2017-10-29T08:34:06.830Z,1004.49
2017-10-29T08:35:59.839Z,1004.51
2017-10-29T08:36:59.883Z,1004.51
2017-10-29T08:38:52.889Z,1004.54
2017-10-29T08:39:52.936Z,1004.59
2017-10-29T08:41:45.936Z,1004.59
2017-10-29T08:42:45.979Z,1004.60
2017-10-29T08:44:38.987Z,1004.59
2017-10-29T08:45:39.028Z,1004.71
2017-10-29T08:47:32.017Z,1004.63
2017-10-29T08:48:32.078Z,1004.59
2017-10-29T08:50:25.090Z,1004.66
2017-10-29T08:51:25.123Z,1004.72
2017-10-29T08:53:18.108Z,1004.79
2017-10-29T08:54:18.170Z,1004.76
2017-10-29T08:56:11.179Z,1004.79
2017-10-29T08:57:11.218Z,1004.85
2017-10-29T08:59:04.213Z,1004.81
2017-10-29T09:00:04.276Z,1004.85
2017-10-29T09:01:57.291Z,1004.85
2017-10-29T09:02:57.336Z,1004.87
2017-10-29T09:04:50.323Z,1004.92
2017-10-29T09:05:50.378Z,1004.98
2017-10-29T09:07:43.387Z,1005.01
2017-10-29T09:08:43.425Z,1004.95
2017-10-29T09:10:36.435Z,1004.91
2017-10-29T09:11:36.472Z,1004.89
2017-10-29T09:13:29.461Z,1004.94
2017-10-29T09:14:29.519Z,1004.95
2017-10-29T09:16:22.528Z,1004.95
2017-10-29T09:17:22.584Z,1005.03
2017-10-29T09:19:15.558Z,1005.14
2017-10-29T09:20:15.616Z,1005.06
2017-10-29T09:22:08.623Z,1005.20
2017-10-29T09:23:08.663Z,1005.21
2017-10-29T09:25:01.652Z,1005.26
2017-10-29T09:26:01.710Z,1005.30
2017-10-29T09:27:54.720Z,1005.31
2017-10-29T09:28:54.758Z,1005.35
2017-10-29T09:30:47.748Z,1005.41
2017-10-29T09:31:47.803Z,1005.47
2017-10-29T09:33:40.820Z,1005.52
2017-10-29T09:34:40.861Z,1005.47
2017-10-29T09:36:33.851Z,1005.44
2017-10-29T09:37:34.898Z,1005.53
2017-10-29T09:39:26.936Z,1005.52
2017-10-29T09:40:26.959Z,1005.63
2017-10-29T09:42:19.951Z,1005.56
2017-10-29T09:43:20.006Z,1005.68
2017-10-29T09:45:13.013Z,1005.72
2017-10-29T09:46:13.052Z,1005.76
2017-10-29T09:48:06.068Z,1005.86
2017-10-29T09:49:06.100Z,1005.89
2017-10-29T09:50:59.091Z,1005.90
2017-10-29T09:51:59.147Z,1005.88
2017-10-29T09:53:52.153Z,1005.93
2017-10-29T09:54:52.195Z,1005.94
2017-10-29T09:56:45.179Z,1006.06
2017-10-29T09:57:45.240Z,1005.95
2017-10-29T09:59:38.247Z,1006.03
2017-10-29T10:00:38.286Z,1006.10
2017-10-29T10:02:31.275Z,1006.04
2017-10-29T10:03:31.333Z,1005.99
2017-10-29T10:05:24.382Z,1006.08
2017-10-29T10:06:24.420Z,1006.03
2017-10-29T10:08:17.410Z,1006.12
2017-10-29T10:09:17.465Z,1006.17
2017-10-29T10:11:10.547Z,1006.19
2017-10-29T10:12:10.515Z,1006.25
2017-10-29T10:14:03.510Z,1006.24
2017-10-29T10:15:03.561Z,1006.37
2017-10-29T10:16:56.570Z,1006.59
2017-10-29T10:17:56.608Z,1006.48
2017-10-29T10:19:49.597Z,1006.50
2017-10-29T10:20:49.652Z,1006.38
2017-10-29T10:22:42.664Z,1006.40
2017-10-29T10:23:42.704Z,1006.39
2017-10-29T10:25:36.239Z,1006.36
2017-10-29T10:26:36.257Z,1006.35
2017-10-29T10:28:29.271Z,1006.50
2017-10-29T10:29:29.311Z,1006.57
2017-10-29T10:31:22.329Z,1006.54
2017-10-29T10:32:22.359Z,1006.62
2017-10-29T10:34:15.343Z,1006.55
2017-10-29T10:35:15.404Z,1006.55
2017-10-29T10:37:08.413Z,1006.66
2017-10-29T10:38:08.454Z,1006.62
2017-10-29T10:40:01.438Z,1006.61
2017-10-29T10:41:01.502Z,1006.60
2017-10-29T10:42:54.509Z,1006.67
2017-10-29T10:43:54.544Z,1006.68
2017-10-29T10:45:47.532Z,1006.74
2017-10-29T10:46:47.592Z,1006.76
2017-10-29T10:48:40.603Z,1006.83
2017-10-29T10:49:40.636Z,1006.79
2017-10-29T10:51:33.626Z,1006.80
2017-10-29T10:52:33.686Z,1006.81
2017-10-29T10:54:26.694Z,1006.77
2017-10-29T10:55:26.731Z,1006.68
2017-10-29T10:57:19.721Z,1006.77
2017-10-29T10:58:19.780Z,1006.85
2017-10-29T11:00:12.789Z,1006.81
2017-10-29T11:01:12.830Z,1006.81
2017-10-29T11:03:05.819Z,1006.80
2017-10-29T11:04:05.899Z,1006.75
2017-10-29T11:05:58.888Z,1006.96
2017-10-29T11:06:58.925Z,1007.04
2017-10-29T11:08:51.945Z,1007.23
2017-10-29T11:09:51.971Z,1007.22
2017-10-29T11:11:44.960Z,1007.12
2017-10-29T11:12:45.023Z,1007.10
2017-10-29T11:14:38.039Z,1007.10
2017-10-29T11:15:38.064Z,1007.13
2017-10-29T11:17:31.050Z,1007.16
2017-10-29T11:18:31.110Z,1007.12
2017-10-29T11:20:24.124Z,1007.12
2017-10-29T11:21:24.156Z,1007.13
2017-10-29T11:23:17.145Z,1007.05
2017-10-29T11:24:17.206Z,1007.01
2017-10-29T11:26:10.757Z,1007.04
2017-10-29T11:27:10.768Z,1006.97
2017-10-29T11:29:03.746Z,1006.99
2017-10-29T11:30:03.804Z,1007.03
2017-10-29T11:31:56.808Z,1007.04
2017-10-29T11:32:56.847Z,1007.02
2017-10-29T11:34:49.835Z,1007.04
2017-10-29T11:35:49.893Z,1007.04
2017-10-29T11:37:42.897Z,1006.99
2017-10-29T11:38:42.936Z,1007.09
2017-10-29T11:40:35.928Z,1007.13
2017-10-29T11:41:35.983Z,1007.06
2017-10-29T11:43:28.990Z,1007.08
2017-10-29T11:44:29.026Z,1007.10
2017-10-29T11:46:22.036Z,1007.14
2017-10-29T11:47:22.070Z,1007.11
2017-10-29T11:49:15.059Z,1007.20
2017-10-29T11:50:15.116Z,1007.16
2017-10-29T11:52:08.151Z,1007.13
2017-10-29T11:53:08.189Z,1007.19
2017-10-29T11:55:01.144Z,1007.16
2017-10-29T11:56:01.203Z,1007.22
2017-10-29T11:57:54.209Z,1007.21
2017-10-29T11:58:54.247Z,1007.18
2017-10-29T12:00:47.238Z,1007.24
2017-10-29T12:01:47.295Z,1007.25
2017-10-29T12:03:40.365Z,1007.26
2017-10-29T12:04:40.344Z,1007.26
2017-10-29T12:06:33.333Z,1007.28
2017-10-29T12:07:33.394Z,1007.32
2017-10-29T12:09:26.401Z,1007.27
2017-10-29T12:10:26.464Z,1007.28
2017-10-29T12:12:19.428Z,1007.31
2017-10-29T12:13:19.485Z,1007.33
2017-10-29T12:15:12.492Z,1007.29
2017-10-29T12:16:12.544Z,1007.28
2017-10-29T12:18:05.515Z,1007.38
2017-10-29T12:19:05.578Z,1007.42
2017-10-29T12:20:58.582Z,1007.52
2017-10-29T12:21:58.620Z,1007.53
2017-10-29T12:23:51.623Z,1007.63
2017-10-29T12:24:51.684Z,1007.67
2017-10-29T12:26:44.680Z,1007.77
2017-10-29T12:27:44.719Z,1007.93
2017-10-29T12:29:37.707Z,1007.92
2017-10-29T12:30:37.774Z,1007.92
2017-10-29T12:32:30.787Z,1008.05
2017-10-29T12:33:30.824Z,1007.99
2017-10-29T12:35:23.823Z,1007.88
2017-10-29T12:36:23.868Z,1007.81
2017-10-29T12:38:16.855Z,1007.76
2017-10-29T12:39:16.912Z,1007.75
2017-10-29T12:41:09.923Z,1007.83
2017-10-29T12:42:09.958Z,1007.86
2017-10-29T12:44:02.939Z,1007.86
2017-10-29T12:45:03.003Z,1007.91
2017-10-29T12:46:56.004Z,1007.93
2017-10-29T12:47:56.054Z,1007.95
2017-10-29T12:49:49.032Z,1007.95
2017-10-29T12:50:49.092Z,1008.01
2017-10-29T12:52:42.094Z,1007.98
2017-10-29T12:53:42.133Z,1007.99
2017-10-29T12:55:35.127Z,1007.98
2017-10-29T12:56:35.176Z,1008.05
2017-10-29T12:58:28.184Z,1008.04
2017-10-29T12:59:28.223Z,1007.95
2017-10-29T13:01:21.228Z,1007.92
2017-10-29T13:02:21.268Z,1008.03
2017-10-29T13:04:14.274Z,1008.01
2017-10-29T13:05:14.313Z,1007.99
2017-10-29T13:07:07.326Z,1007.96
2017-10-29T13:08:07.363Z,1007.98
2017-10-29T13:10:00.352Z,1007.92
2017-10-29T13:11:00.413Z,1007.94
2017-10-29T13:12:53.419Z,1008.06
2017-10-29T13:13:53.454Z,1008.08
2017-10-29T13:15:46.441Z,1008.17
2017-10-29T13:16:46.498Z,1008.15
2017-10-29T13:18:39.501Z,1008.20
2017-10-29T13:19:39.541Z,1008.22
2017-10-29T13:21:32.524Z,1008.32
2017-10-29T13:22:32.585Z,1008.35
2017-10-29T13:24:25.592Z,1008.36
2017-10-29T13:25:25.630Z,1008.39
2017-10-29T13:27:18.614Z,1008.41
2017-10-29T13:28:18.691Z,1008.47
2017-10-29T13:30:11.682Z,1008.51
2017-10-29T13:31:11.719Z,1008.56
2017-10-29T13:33:04.719Z,1008.64
2017-10-29T13:34:04.765Z,1008.64
2017-10-29T13:35:57.771Z,1008.71
2017-10-29T13:36:57.811Z,1008.70
2017-10-29T13:38:50.856Z,1008.73
2017-10-29T13:39:50.853Z,1008.80
2017-10-29T13:41:43.838Z,1008.83
2017-10-29T13:42:43.899Z,1008.87
2017-10-29T13:44:36.998Z,1008.81
2017-10-29T13:45:36.944Z,1008.80
2017-10-29T13:47:29.936Z,1008.84
2017-10-29T13:48:30.001Z,1008.73
2017-10-29T13:50:23.013Z,1008.76
2017-10-29T13:51:23.049Z,1008.76
2017-10-29T13:53:16.028Z,1008.71
2017-10-29T13:54:16.089Z,1008.72
2017-10-29T13:56:09.094Z,1008.84
2017-10-29T13:57:09.132Z,1008.81
2017-10-29T13:59:02.120Z,1008.90
2017-10-29T14:00:02.182Z,1008.94
2017-10-29T14:01:55.185Z,1008.92
2017-10-29T14:02:55.226Z,1008.94
2017-10-29T14:04:48.211Z,1008.92
2017-10-29T14:05:48.282Z,1008.85
2017-10-29T14:07:41.271Z,1008.86
2017-10-29T14:08:41.310Z,1008.86
2017-10-29T14:10:34.316Z,1008.88
2017-10-29T14:11:34.356Z,1008.97
2017-10-29T14:13:27.355Z,1008.94
2017-10-29T14:14:27.407Z,1009.01
2017-10-29T14:16:20.412Z,1009.15
2017-10-29T14:17:20.451Z,1009.07
2017-10-29T14:19:13.442Z,1009.21
2017-10-29T14:20:13.503Z,1009.16
2017-10-29T14:22:06.509Z,1009.20
2017-10-29T14:23:06.548Z,1009.25
2017-10-29T14:24:59.537Z,1009.25
2017-10-29T14:25:59.599Z,1009.25
2017-10-29T14:27:52.601Z,1009.18
2017-10-29T14:28:52.641Z,1009.25
2017-10-29T14:30:45.628Z,1009.18
2017-10-29T14:31:45.686Z,1009.17
2017-10-29T14:33:38.690Z,1009.09
2017-10-29T14:34:38.730Z,1009.07
2017-10-29T14:36:31.754Z,1009.08
2017-10-29T14:37:31.780Z,1009.12
2017-10-29T14:39:24.760Z,1009.10
2017-10-29T14:40:24.817Z,1009.09
2017-10-29T14:42:17.821Z,1009.01
2017-10-29T14:43:17.866Z,1008.99
2017-10-29T14:45:10.843Z,1008.96
2017-10-29T14:46:10.903Z,1009.02
2017-10-29T14:48:03.910Z,1008.91
2017-10-29T14:49:03.948Z,1008.95
2017-10-29T14:50:56.932Z,1008.92
2017-10-29T14:51:56.996Z,1008.86
2017-10-29T14:53:49.997Z,1008.89
2017-10-29T14:54:50.036Z,1008.91
2017-10-29T14:56:43.018Z,1008.97
2017-10-29T14:57:43.078Z,1009.00
2017-10-29T14:59:36.086Z,1009.10
2017-10-29T15:00:36.125Z,1009.11
2017-10-29T15:02:29.161Z,1009.14
2017-10-29T15:03:29.167Z,1009.14
2017-10-29T15:05:22.151Z,1009.16
2017-10-29T15:06:22.211Z,1009.19
2017-10-29T15:08:15.218Z,1009.37
2017-10-29T15:09:15.257Z,1009.34
2017-10-29T15:11:08.245Z,1009.33
2017-10-29T15:12:08.301Z,1009.36
2017-10-29T15:14:01.312Z,1009.42
2017-10-29T15:15:01.352Z,1009.34
2017-10-29T15:16:54.333Z,1009.41
2017-10-29T15:17:54.393Z,1009.36
2017-10-29T15:19:47.397Z,1009.39
2017-10-29T15:20:47.435Z,1009.44
2017-10-29T15:22:40.440Z,1009.49
2017-10-29T15:23:40.480Z,1009.48
2017-10-29T15:25:34.009Z,1009.42
2017-10-29T15:26:34.029Z,1009.52
2017-10-29T15:28:27.038Z,1009.52
2017-10-29T15:29:27.079Z,1009.59
2017-10-29T15:31:20.083Z,1009.65
2017-10-29T15:32:20.119Z,1009.69
2017-10-29T15:34:13.137Z,1009.74
2017-10-29T15:35:13.163Z,1009.78
2017-10-29T15:37:06.145Z,1009.74
2017-10-29T15:38:06.206Z,1009.82
2017-10-29T15:39:59.209Z,1009.77
2017-10-29T15:40:59.252Z,1009.76
2017-10-29T15:42:52.234Z,1009.77
2017-10-29T15:43:52.292Z,1009.79
2017-10-29T15:45:45.302Z,1009.86
2017-10-29T15:46:45.342Z,1009.86
2017-10-29T15:48:38.324Z,1009.89
2017-10-29T15:49:38.381Z,1009.88
2017-10-29T15:51:31.384Z,1009.98
2017-10-29T15:52:31.439Z,1009.96
2017-10-29T15:54:24.410Z,1010.02
2017-10-29T15:55:24.465Z,1010.07
2017-10-29T15:57:17.470Z,1010.10
2017-10-29T15:58:17.508Z,1010.08
2017-10-29T16:00:10.513Z,1010.10
2017-10-29T16:01:10.550Z,1010.12
2017-10-29T16:03:03.535Z,1010.12
2017-10-29T16:04:03.597Z,1010.21
2017-10-29T16:05:56.616Z,1010.26
2017-10-29T16:06:56.641Z,1010.28
2017-10-29T16:08:49.641Z,1010.30
2017-10-29T16:09:49.683Z,1010.37
2017-10-29T16:11:42.685Z,1010.46
2017-10-29T16:12:42.738Z,1010.48
2017-10-29T16:14:35.710Z,1010.51
2017-10-29T16:15:35.767Z,1010.55
2017-10-29T16:17:28.777Z,1010.59
2017-10-29T16:18:28.808Z,1010.63
2017-10-29T16:20:21.788Z,1010.53
2017-10-29T16:21:21.848Z,1010.58
2017-10-29T16:23:14.852Z,1010.58
2017-10-29T16:24:14.889Z,1010.62
2017-10-29T16:26:08.387Z,1010.62
2017-10-29T16:27:08.442Z,1010.63
2017-10-29T16:29:01.450Z,1010.63
2017-10-29T16:30:01.497Z,1010.59
2017-10-29T16:31:54.474Z,1010.63
2017-10-29T16:32:54.528Z,1010.58
2017-10-29T16:34:47.534Z,1010.63
2017-10-29T16:35:47.570Z,1010.63
2017-10-29T16:37:40.577Z,1010.69
2017-10-29T16:38:40.610Z,1010.63
2017-10-29T16:40:33.595Z,1010.69
2017-10-29T16:41:33.652Z,1010.70
2017-10-29T16:43:26.656Z,1010.75
2017-10-29T16:44:26.698Z,1010.72
2017-10-29T16:46:19.684Z,1010.75
2017-10-29T16:47:19.745Z,1010.74
2017-10-29T16:49:12.747Z,1010.75
2017-10-29T16:50:12.799Z,1010.75
2017-10-29T16:52:05.770Z,1010.83
2017-10-29T16:53:05.831Z,1010.84
2017-10-29T16:54:58.838Z,1010.90
2017-10-29T16:55:58.886Z,1010.95
2017-10-29T16:57:51.866Z,1010.98
2017-10-29T16:58:51.914Z,1010.97
2017-10-29T17:00:44.916Z,1010.92
2017-10-29T17:01:44.953Z,1010.92
2017-10-29T17:03:37.934Z,1010.92
2017-10-29T17:04:37.995Z,1010.94
2017-10-29T17:06:31.008Z,1010.96
2017-10-29T17:07:31.042Z,1011.00
2017-10-29T17:09:24.047Z,1011.03
2017-10-29T17:10:24.089Z,1011.03
2017-10-29T17:12:17.070Z,1011.02
2017-10-29T17:13:17.127Z,1011.08
2017-10-29T17:15:10.132Z,1011.09
2017-10-29T17:16:10.170Z,1011.16
2017-10-29T17:18:03.151Z,1011.15
2017-10-29T17:19:03.213Z,1011.18
2017-10-29T17:20:56.217Z,1011.16
2017-10-29T17:21:56.252Z,1011.19
2017-10-29T17:23:49.239Z,1011.24
2017-10-29T17:24:49.296Z,1011.25
2017-10-29T17:26:42.306Z,1011.31
2017-10-29T17:27:42.342Z,1011.39
2017-10-29T17:29:35.325Z,1011.36
2017-10-29T17:30:35.383Z,1011.35
2017-10-29T17:32:28.387Z,1011.32
2017-10-29T17:33:28.421Z,1011.38
2017-10-29T17:35:21.422Z,1011.46
2017-10-29T17:36:21.462Z,1011.46